createdAt,value
2023-02-23T00:00:13.219Z,995.69
2023-02-23T00:01:13.295Z,995.68
2023-02-23T00:02:13.548Z,995.67
2023-02-23T00:03:13.404Z,995.66
2023-02-23T00:04:13.545Z,995.64
2023-02-23T00:05:14.637Z,995.70
2023-02-23T00:06:13.574Z,995.74
2023-02-23T00:07:13.476Z,995.74
2023-02-23T00:08:13.493Z,995.75
2023-02-23T00:09:14.369Z,995.73
2023-02-23T00:10:13.336Z,995.73
2023-02-23T00:11:13.424Z,995.71
2023-02-23T00:12:13.502Z,995.71
2023-02-23T00:13:13.623Z,995.70
2023-02-23T00:14:13.800Z,995.67
2023-02-23T00:15:13.867Z,995.69
2023-02-23T00:16:13.941Z,995.65
2023-02-23T00:17:13.306Z,995.67
2023-02-23T00:18:14.059Z,995.65
2023-02-23T00:19:12.954Z,995.63
2023-02-23T00:20:12.973Z,995.65
2023-02-23T00:21:13.099Z,995.66
2023-02-23T00:22:13.057Z,995.63
2023-02-23T00:23:13.045Z,995.65
2023-02-23T00:24:13.056Z,995.64
2023-02-23T00:25:13.607Z,995.63
2023-02-23T00:26:13.601Z,995.64
2023-02-23T00:27:13.811Z,995.63
2023-02-23T00:28:13.797Z,995.64
2023-02-23T00:29:15.308Z,995.63
2023-02-23T00:30:13.370Z,995.63
2023-02-23T00:31:13.616Z,995.62
2023-02-23T00:32:13.978Z,995.63
2023-02-23T00:33:13.129Z,995.59
2023-02-23T00:34:13.535Z,995.59
2023-02-23T00:35:13.899Z,995.61
2023-02-23T00:36:13.065Z,995.62
2023-02-23T00:37:13.107Z,995.58
2023-02-23T00:38:14.195Z,995.59
2023-02-23T00:39:13.225Z,995.62
2023-02-23T00:40:13.206Z,995.57
2023-02-23T00:41:14.449Z,995.57
2023-02-23T00:42:13.553Z,995.55
2023-02-23T00:43:13.570Z,995.59
2023-02-23T00:44:14.011Z,995.55
2023-02-23T00:45:13.028Z,995.56
2023-02-23T00:46:13.220Z,995.53
2023-02-23T00:47:13.560Z,995.57
2023-02-23T00:48:13.668Z,995.57
2023-02-23T00:49:13.874Z,995.58
2023-02-23T00:50:14.113Z,995.57
2023-02-23T00:51:13.192Z,995.56
2023-02-23T00:52:13.182Z,995.57
2023-02-23T00:53:13.324Z,995.56
2023-02-23T00:54:13.286Z,995.56
2023-02-23T00:55:13.300Z,995.56
2023-02-23T00:56:13.691Z,995.59
2023-02-23T00:57:13.806Z,995.59
2023-02-23T00:58:14.174Z,995.56
2023-02-23T00:59:13.163Z,995.56
2023-02-23T01:00:13.154Z,995.57
2023-02-23T01:01:13.725Z,995.56
2023-02-23T01:02:13.934Z,995.58
2023-02-23T01:03:13.087Z,995.61
2023-02-23T01:04:12.989Z,995.62
2023-02-23T01:05:12.942Z,995.62
2023-02-23T01:06:13.138Z,995.60
2023-02-23T01:07:13.309Z,995.56
2023-02-23T01:08:13.567Z,995.62
2023-02-23T01:09:13.943Z,995.59
2023-02-23T01:10:13.010Z,995.60
2023-02-23T01:11:13.111Z,995.60
2023-02-23T01:12:13.410Z,995.59
2023-02-23T01:13:13.550Z,995.58
2023-02-23T01:14:13.884Z,995.60
2023-02-23T01:15:19.084Z,995.60
2023-02-23T01:16:13.107Z,995.57
2023-02-23T01:17:13.265Z,995.60
2023-02-23T01:18:13.319Z,995.57
2023-02-23T01:19:13.408Z,995.56
2023-02-23T01:20:18.445Z,995.57
2023-02-23T01:21:13.535Z,995.58
2023-02-23T01:22:14.089Z,995.57
2023-02-23T01:23:13.093Z,995.58
2023-02-23T01:24:13.113Z,995.59
2023-02-23T01:25:13.323Z,995.55
2023-02-23T01:26:13.233Z,995.56
2023-02-23T01:27:13.224Z,995.53
2023-02-23T01:28:13.333Z,995.57
2023-02-23T01:29:13.395Z,995.54
2023-02-23T01:30:15.181Z,995.58
2023-02-23T01:31:14.007Z,995.56
2023-02-23T01:32:13.395Z,995.55
2023-02-23T01:33:13.772Z,995.56
2023-02-23T01:34:13.805Z,995.54
2023-02-23T01:35:29.983Z,995.57
2023-02-23T01:36:13.284Z,995.57
2023-02-23T01:37:20.607Z,995.57
2023-02-23T01:38:14.023Z,995.56
2023-02-23T01:39:13.222Z,995.57
2023-02-23T01:40:13.571Z,995.56
2023-02-23T01:41:13.696Z,995.58
2023-02-23T01:42:13.884Z,995.57
2023-02-23T01:43:13.085Z,995.55
2023-02-23T01:44:13.627Z,995.54
2023-02-23T01:45:13.937Z,995.53
2023-02-23T01:46:12.966Z,995.55
2023-02-23T01:47:13.516Z,995.52
2023-02-23T01:48:13.684Z,995.54
2023-02-23T01:49:14.654Z,995.55
2023-02-23T01:50:13.952Z,995.51
2023-02-23T01:51:13.332Z,995.51
2023-02-23T01:52:13.768Z,995.51
2023-02-23T01:53:13.964Z,995.49
2023-02-23T01:54:13.159Z,995.49
2023-02-23T01:55:13.603Z,995.50
2023-02-23T01:56:13.547Z,995.51
2023-02-23T01:57:13.657Z,995.50
2023-02-23T01:58:13.830Z,995.51
2023-02-23T01:59:13.830Z,995.47
2023-02-23T02:00:14.252Z,995.52
2023-02-23T02:01:13.340Z,995.49
2023-02-23T02:02:13.495Z,995.47
2023-02-23T02:03:13.838Z,995.46
2023-02-23T02:04:13.872Z,995.49
2023-02-23T02:05:14.264Z,995.47
2023-02-23T02:06:13.428Z,995.44
2023-02-23T02:07:13.783Z,995.48
2023-02-23T02:08:14.061Z,995.47
2023-02-23T02:09:12.985Z,995.46
2023-02-23T02:10:13.090Z,995.44
2023-02-23T02:11:13.466Z,995.46
2023-02-23T02:12:13.452Z,995.45
2023-02-23T02:13:13.417Z,995.43
2023-02-23T02:14:13.581Z,995.47
2023-02-23T02:15:13.828Z,995.47
2023-02-23T02:16:14.058Z,995.43
2023-02-23T02:17:13.116Z,995.46
2023-02-23T02:18:13.131Z,995.43
2023-02-23T02:19:13.173Z,995.43
2023-02-23T02:20:13.302Z,995.43
2023-02-23T02:21:13.252Z,995.44
2023-02-23T02:22:13.318Z,995.43
2023-02-23T02:23:13.270Z,995.44
2023-02-23T02:24:13.365Z,995.46
2023-02-23T02:25:13.687Z,995.43
2023-02-23T02:26:13.745Z,995.43
2023-02-23T02:27:13.938Z,995.44
2023-02-23T02:28:12.952Z,995.44
2023-02-23T02:29:13.017Z,995.41
2023-02-23T02:30:12.980Z,995.42
2023-02-23T02:31:13.031Z,995.43
2023-02-23T02:32:13.309Z,995.44
2023-02-23T02:33:13.214Z,995.42
2023-02-23T02:34:13.364Z,995.40
2023-02-23T02:35:13.544Z,995.42
2023-02-23T02:36:13.590Z,995.40
2023-02-23T02:37:13.591Z,995.41
2023-02-23T02:38:13.466Z,995.39
2023-02-23T02:39:13.324Z,995.39
2023-02-23T02:40:13.852Z,995.39
2023-02-23T02:41:13.962Z,995.39
2023-02-23T02:42:13.029Z,995.34
2023-02-23T02:43:13.433Z,995.35
2023-02-23T02:44:13.464Z,995.34
2023-02-23T02:45:13.423Z,995.31
2023-02-23T02:46:13.506Z,995.35
2023-02-23T02:47:13.706Z,995.33
2023-02-23T02:48:13.726Z,995.35
2023-02-23T02:49:13.815Z,995.32
2023-02-23T02:50:13.767Z,995.33
2023-02-23T02:51:14.096Z,995.30
2023-02-23T02:52:13.418Z,995.30
2023-02-23T02:53:13.389Z,995.28
2023-02-23T02:54:13.333Z,995.28
2023-02-23T02:55:13.331Z,995.27
2023-02-23T02:56:13.338Z,995.29
2023-02-23T02:57:13.249Z,995.27
2023-02-23T02:58:13.609Z,995.29
2023-02-23T02:59:14.106Z,995.29
2023-02-23T03:00:13.135Z,995.28
2023-02-23T03:01:13.142Z,995.27
2023-02-23T03:02:13.153Z,995.26
2023-02-23T03:03:13.088Z,995.25
2023-02-23T03:04:13.117Z,995.26
2023-02-23T03:05:13.212Z,995.26
2023-02-23T03:06:13.417Z,995.25
2023-02-23T03:07:13.321Z,995.26
2023-02-23T03:08:13.701Z,995.30
2023-02-23T03:09:13.841Z,995.26
2023-02-23T03:10:13.827Z,995.27
2023-02-23T03:11:14.158Z,995.29
2023-02-23T03:12:13.224Z,995.29
2023-02-23T03:13:13.531Z,995.29
2023-02-23T03:14:13.720Z,995.29
2023-02-23T03:15:13.799Z,995.30
2023-02-23T03:16:14.802Z,995.28
2023-02-23T03:17:14.216Z,995.31
2023-02-23T03:18:13.221Z,995.30
2023-02-23T03:19:13.286Z,995.29
2023-02-23T03:20:13.224Z,995.29
2023-02-23T03:21:13.333Z,995.25
2023-02-23T03:22:13.665Z,995.27
2023-02-23T03:23:13.672Z,995.29
2023-02-23T03:24:13.866Z,995.27
2023-02-23T03:25:14.131Z,995.26
2023-02-23T03:26:13.267Z,995.28
2023-02-23T03:27:13.221Z,995.27
2023-02-23T03:28:13.263Z,995.27
2023-02-23T03:29:13.156Z,995.28
2023-02-23T03:30:13.134Z,995.29
2023-02-23T03:31:13.168Z,995.30
2023-02-23T03:32:13.301Z,995.30
2023-02-23T03:33:13.498Z,995.31
2023-02-23T03:34:13.434Z,995.28
2023-02-23T03:35:13.421Z,995.33
2023-02-23T03:36:13.526Z,995.31
2023-02-23T03:37:13.470Z,995.33
2023-02-23T03:38:13.383Z,995.29
2023-02-23T03:39:13.549Z,995.32
2023-02-23T03:40:13.750Z,995.31
2023-02-23T03:41:13.852Z,995.29
2023-02-23T03:42:14.123Z,995.33
2023-02-23T03:43:13.308Z,995.31
2023-02-23T03:44:13.263Z,995.32
2023-02-23T03:45:13.263Z,995.29
2023-02-23T03:46:13.182Z,995.33
2023-02-23T03:47:13.136Z,995.30
2023-02-23T03:48:13.343Z,995.32
2023-02-23T03:49:13.399Z,995.29
2023-02-23T03:50:13.398Z,995.34
2023-02-23T03:51:13.380Z,995.34
2023-02-23T03:52:13.787Z,995.32
2023-02-23T03:53:13.708Z,995.29
2023-02-23T03:54:13.916Z,995.33
2023-02-23T03:55:12.902Z,995.30
2023-02-23T03:56:12.884Z,995.34
2023-02-23T03:57:12.757Z,995.32
2023-02-23T03:58:13.603Z,995.29
2023-02-23T03:59:13.679Z,995.31
2023-02-23T04:00:13.763Z,995.32
2023-02-23T04:01:13.677Z,995.30
2023-02-23T04:02:14.163Z,995.30
2023-02-23T04:03:13.254Z,995.29
2023-02-23T04:04:13.177Z,995.30
2023-02-23T04:05:13.075Z,995.31
2023-02-23T04:06:13.044Z,995.30
2023-02-23T04:07:13.051Z,995.34
2023-02-23T04:08:13.161Z,995.38
2023-02-23T04:09:13.133Z,995.35
2023-02-23T04:10:13.081Z,995.36
2023-02-23T04:11:13.102Z,995.38
2023-02-23T04:12:13.008Z,995.36
2023-02-23T04:13:12.926Z,995.39
2023-02-23T04:14:12.891Z,995.40
2023-02-23T04:15:12.844Z,995.35
2023-02-23T04:16:14.044Z,995.39
2023-02-23T04:17:13.153Z,995.42
2023-02-23T04:18:13.197Z,995.41
2023-02-23T04:19:13.428Z,995.41
2023-02-23T04:20:13.416Z,995.39
2023-02-23T04:21:13.765Z,995.39
2023-02-23T04:22:13.890Z,995.41
2023-02-23T04:23:13.193Z,995.45
2023-02-23T04:24:13.202Z,995.41
2023-02-23T04:25:13.143Z,995.45
2023-02-23T04:26:13.067Z,995.45
2023-02-23T04:27:13.004Z,995.45
2023-02-23T04:28:13.005Z,995.45
2023-02-23T04:29:13.359Z,995.43
2023-02-23T04:30:13.447Z,995.48
2023-02-23T04:31:13.780Z,995.46
2023-02-23T04:32:13.710Z,995.47
2023-02-23T04:33:14.122Z,995.49
2023-02-23T04:34:13.242Z,995.50
2023-02-23T04:35:13.353Z,995.51
2023-02-23T04:36:13.294Z,995.53
2023-02-23T04:37:13.647Z,995.54
2023-02-23T04:38:14.134Z,995.52
2023-02-23T04:39:17.619Z,995.57
2023-02-23T04:40:13.701Z,995.54
2023-02-23T04:41:13.607Z,995.54
2023-02-23T04:42:13.496Z,995.59
2023-02-23T04:43:13.498Z,995.59
2023-02-23T04:44:13.407Z,995.60
2023-02-23T04:45:13.475Z,995.60
2023-02-23T04:46:13.541Z,995.55
2023-02-23T04:47:13.674Z,995.57
2023-02-23T04:48:13.677Z,995.56
2023-02-23T04:49:13.676Z,995.57
2023-02-23T04:50:13.734Z,995.60
2023-02-23T04:51:13.967Z,995.58
2023-02-23T04:52:12.799Z,995.57
2023-02-23T04:53:13.943Z,995.57
2023-02-23T04:54:13.150Z,995.60
2023-02-23T04:55:12.981Z,995.55
2023-02-23T04:56:13.370Z,995.54
2023-02-23T04:57:13.543Z,995.55
2023-02-23T04:58:13.700Z,995.54
2023-02-23T04:59:13.835Z,995.53
2023-02-23T05:00:13.713Z,995.58
2023-02-23T05:01:37.306Z,995.55
2023-02-23T05:02:13.701Z,995.56
2023-02-23T05:03:13.828Z,995.54
2023-02-23T05:04:14.054Z,995.57
2023-02-23T05:05:13.054Z,995.57
2023-02-23T05:06:12.899Z,995.57
2023-02-23T05:07:12.941Z,995.62
2023-02-23T05:08:12.930Z,995.58
2023-02-23T05:09:12.840Z,995.62
2023-02-23T05:10:13.774Z,995.58
2023-02-23T05:11:13.696Z,995.59
2023-02-23T05:12:13.628Z,995.59
2023-02-23T05:13:13.524Z,995.58
2023-02-23T05:14:13.596Z,995.58
2023-02-23T05:15:13.698Z,995.60
2023-02-23T05:16:13.797Z,995.61
2023-02-23T05:17:13.879Z,995.62
2023-02-23T05:18:14.207Z,995.59
2023-02-23T05:19:13.369Z,995.58
2023-02-23T05:20:13.519Z,995.60
2023-02-23T05:21:13.510Z,995.65
2023-02-23T05:22:13.338Z,995.60
2023-02-23T05:23:13.341Z,995.60
2023-02-23T05:24:13.261Z,995.61
2023-02-23T05:25:13.764Z,995.59
2023-02-23T05:26:14.126Z,995.58
2023-02-23T05:27:13.040Z,995.60
2023-02-23T05:28:12.928Z,995.62
2023-02-23T05:29:13.015Z,995.64
2023-02-23T05:30:12.909Z,995.61
2023-02-23T05:31:12.950Z,995.69
2023-02-23T05:32:13.192Z,995.67
2023-02-23T05:33:13.293Z,995.69
2023-02-23T05:34:13.391Z,995.65
2023-02-23T05:35:13.456Z,995.66
2023-02-23T05:36:14.350Z,995.69
2023-02-23T05:37:13.687Z,995.69
2023-02-23T05:38:13.706Z,995.67
2023-02-23T05:39:15.110Z,995.70
2023-02-23T05:40:13.360Z,995.69
2023-02-23T05:41:13.236Z,995.66
2023-02-23T05:43:00.850Z,995.67
2023-02-23T05:43:13.420Z,995.66
2023-02-23T05:44:18.685Z,995.69
2023-02-23T05:45:13.943Z,995.69
2023-02-23T05:46:18.230Z,995.74
2023-02-23T05:47:13.441Z,995.71
2023-02-23T05:48:13.469Z,995.71
2023-02-23T05:49:13.587Z,995.73
2023-02-23T05:50:13.887Z,995.72
2023-02-23T05:51:13.185Z,995.70
2023-02-23T05:52:13.117Z,995.73
2023-02-23T05:53:13.744Z,995.71
2023-02-23T05:54:18.762Z,995.72
2023-02-23T05:55:13.745Z,995.72
2023-02-23T05:56:13.733Z,995.72
2023-02-23T05:57:13.940Z,995.70
2023-02-23T05:58:12.886Z,995.69
2023-02-23T05:59:13.281Z,995.72
2023-02-23T06:00:13.287Z,995.75
2023-02-23T06:01:13.350Z,995.74
2023-02-23T06:02:13.437Z,995.74
2023-02-23T06:03:13.752Z,995.74
2023-02-23T06:04:13.957Z,995.78
2023-02-23T06:05:12.939Z,995.76
2023-02-23T06:06:13.208Z,995.78
2023-02-23T06:07:13.308Z,995.78
2023-02-23T06:08:13.411Z,995.74
2023-02-23T06:09:13.602Z,995.78
2023-02-23T06:10:13.536Z,995.82
2023-02-23T06:11:13.739Z,995.79
2023-02-23T06:12:13.648Z,995.77
2023-02-23T06:13:13.653Z,995.78
2023-02-23T06:14:13.709Z,995.78
2023-02-23T06:15:13.694Z,995.79
2023-02-23T06:16:13.830Z,995.82
2023-02-23T06:17:13.021Z,995.84
2023-02-23T06:18:12.923Z,995.80
2023-02-23T06:19:14.091Z,995.86
2023-02-23T06:20:13.021Z,995.84
2023-02-23T06:21:12.977Z,995.83
2023-02-23T06:22:13.145Z,995.86
2023-02-23T06:23:13.154Z,995.85
2023-02-23T06:24:13.077Z,995.88
2023-02-23T06:25:13.178Z,995.90
2023-02-23T06:26:13.109Z,995.86
2023-02-23T06:27:12.968Z,995.87
2023-02-23T06:28:13.066Z,995.91
2023-02-23T06:29:14.029Z,995.90
2023-02-23T06:30:12.979Z,995.93
2023-02-23T06:31:12.934Z,995.97
2023-02-23T06:32:13.058Z,995.90
2023-02-23T06:33:13.233Z,995.95
2023-02-23T06:34:13.382Z,995.94
2023-02-23T06:35:13.258Z,995.96
2023-02-23T06:36:13.228Z,995.95
2023-02-23T06:37:13.058Z,995.99
2023-02-23T06:38:12.992Z,995.99
2023-02-23T06:39:13.127Z,995.99
2023-02-23T06:40:13.209Z,996.00
2023-02-23T06:41:13.639Z,996.03
2023-02-23T06:42:13.674Z,996.01
2023-02-23T06:43:14.815Z,996.02
2023-02-23T06:44:13.985Z,996.03
2023-02-23T06:45:13.275Z,996.05
2023-02-23T06:46:13.406Z,996.06
2023-02-23T06:47:13.442Z,996.05
2023-02-23T06:48:13.483Z,996.09
2023-02-23T06:49:16.185Z,996.08
2023-02-23T06:50:13.615Z,996.12
2023-02-23T06:51:13.702Z,996.13
2023-02-23T06:52:13.788Z,996.15
2023-02-23T06:53:14.071Z,996.15
2023-02-23T06:54:13.128Z,996.15
2023-02-23T06:55:13.062Z,996.20
2023-02-23T06:56:13.323Z,996.21
2023-02-23T06:57:13.794Z,996.16
2023-02-23T06:58:13.693Z,996.21
2023-02-23T06:59:13.936Z,996.21
2023-02-23T07:00:12.843Z,996.21
2023-02-23T07:01:14.081Z,996.24
2023-02-23T07:02:13.047Z,996.24
2023-02-23T07:03:13.267Z,996.21
2023-02-23T07:04:16.235Z,996.26
2023-02-23T07:05:14.001Z,996.24
2023-02-23T07:06:12.949Z,996.24
2023-02-23T07:07:13.371Z,996.25
2023-02-23T07:08:13.430Z,996.24
2023-02-23T07:09:13.380Z,996.27
2023-02-23T07:10:13.325Z,996.27
2023-02-23T07:11:13.457Z,996.31
2023-02-23T07:12:13.873Z,996.30
2023-02-23T07:13:13.702Z,996.35
2023-02-23T07:14:21.484Z,996.34
2023-02-23T07:15:13.247Z,996.32
2023-02-23T07:16:13.300Z,996.37
2023-02-23T07:17:13.366Z,996.35
2023-02-23T07:18:13.278Z,996.37
2023-02-23T07:19:13.306Z,996.36
2023-02-23T07:20:13.337Z,996.40
2023-02-23T07:21:13.315Z,996.41
2023-02-23T07:22:13.303Z,996.40
2023-02-23T07:23:13.281Z,996.40
2023-02-23T07:24:13.769Z,996.42
2023-02-23T07:25:13.962Z,996.44
2023-02-23T07:26:13.009Z,996.43
2023-02-23T07:27:13.272Z,996.45
2023-02-23T07:28:38.097Z,996.43
2023-02-23T07:29:13.600Z,996.46
2023-02-23T07:30:13.626Z,996.43
2023-02-23T07:31:13.797Z,996.47
2023-02-23T07:32:14.058Z,996.47
2023-02-23T07:33:18.093Z,996.49
2023-02-23T07:34:13.173Z,996.49
2023-02-23T07:35:13.204Z,996.49
2023-02-23T07:36:13.345Z,996.49
2023-02-23T07:37:13.647Z,996.47
2023-02-23T07:38:13.667Z,996.48
2023-02-23T07:39:13.964Z,996.53
2023-02-23T07:40:13.089Z,996.53
2023-02-23T07:41:13.022Z,996.55
2023-02-23T07:43:14.339Z,996.52
2023-02-23T07:44:13.495Z,996.53
2023-02-23T07:45:13.610Z,996.52
2023-02-23T07:46:13.644Z,996.51
2023-02-23T07:47:13.682Z,996.55
2023-02-23T07:48:13.885Z,996.56
2023-02-23T07:49:13.119Z,996.59
2023-02-23T07:50:13.342Z,996.59
2023-02-23T07:51:13.658Z,996.58
2023-02-23T07:52:13.530Z,996.58
2023-02-23T07:53:13.938Z,996.61
2023-02-23T07:54:12.980Z,996.60
2023-02-23T07:55:13.813Z,996.59
2023-02-23T07:56:14.119Z,996.65
2023-02-23T07:57:13.442Z,996.64
2023-02-23T07:58:13.343Z,996.65
2023-02-23T07:59:54.641Z,996.68
2023-02-23T08:00:13.316Z,996.72
2023-02-23T08:01:13.416Z,996.72
2023-02-23T08:02:13.526Z,996.71
2023-02-23T08:03:13.820Z,996.73
2023-02-23T08:04:14.073Z,996.71
2023-02-23T08:05:14.507Z,996.77
2023-02-23T08:06:14.154Z,996.72
2023-02-23T08:07:13.436Z,996.79
2023-02-23T08:08:13.604Z,996.77
2023-02-23T08:09:13.651Z,996.75
2023-02-23T08:10:13.656Z,996.76
2023-02-23T08:11:13.919Z,996.79
2023-02-23T08:12:50.698Z,996.78
2023-02-23T08:13:14.139Z,996.75
2023-02-23T08:14:13.270Z,996.76
2023-02-23T08:15:13.393Z,996.80
2023-02-23T08:16:13.465Z,996.79
2023-02-23T08:17:13.844Z,996.80
2023-02-23T08:18:13.941Z,996.76
2023-02-23T08:19:13.149Z,996.82
2023-02-23T08:20:13.430Z,996.83
2023-02-23T08:21:13.533Z,996.82
2023-02-23T08:22:13.544Z,996.82
2023-02-23T08:23:23.701Z,996.86
2023-02-23T08:24:13.803Z,996.86
2023-02-23T08:25:18.883Z,996.90
2023-02-23T08:26:15.531Z,996.89
2023-02-23T08:27:13.945Z,996.89
2023-02-23T08:28:13.032Z,996.88
2023-02-23T08:29:13.161Z,996.86
2023-02-23T08:30:25.631Z,996.90
2023-02-23T08:31:14.421Z,996.91
2023-02-23T08:32:13.636Z,996.92
2023-02-23T08:33:14.194Z,996.92
2023-02-23T08:34:13.401Z,996.93
2023-02-23T08:35:13.508Z,996.93
2023-02-23T08:36:13.518Z,996.95
2023-02-23T08:37:13.564Z,996.95
2023-02-23T08:38:13.954Z,996.98
2023-02-23T08:39:13.281Z,997.00
2023-02-23T08:40:13.353Z,997.03
2023-02-23T08:41:13.395Z,996.98
2023-02-23T08:42:13.682Z,997.03
2023-02-23T08:43:13.732Z,997.02
2023-02-23T08:44:13.832Z,996.99
2023-02-23T08:45:27.343Z,996.99
2023-02-23T08:46:13.445Z,997.05
2023-02-23T08:47:13.677Z,997.01
2023-02-23T08:48:13.824Z,997.04
2023-02-23T08:49:13.857Z,997.03
2023-02-23T08:50:14.070Z,997.08
2023-02-23T08:51:13.184Z,997.03
2023-02-23T08:52:18.283Z,997.07
2023-02-23T08:53:13.269Z,997.07
2023-02-23T08:54:13.287Z,997.08
2023-02-23T08:55:13.261Z,997.11
2023-02-23T08:56:13.579Z,997.12
2023-02-23T08:57:43.840Z,997.12
2023-02-23T08:58:13.864Z,997.10
2023-02-23T08:59:14.183Z,997.12
2023-02-23T09:00:13.588Z,997.13
2023-02-23T09:01:13.745Z,997.12
2023-02-23T09:02:13.891Z,997.14
2023-02-23T09:03:12.885Z,997.14
2023-02-23T09:04:14.105Z,997.13
2023-02-23T09:05:13.339Z,997.17
2023-02-23T09:06:13.887Z,997.14
2023-02-23T09:07:13.262Z,997.13
2023-02-23T09:08:13.673Z,997.14
2023-02-23T09:09:14.572Z,997.17
2023-02-23T09:10:13.706Z,997.20
2023-02-23T09:11:13.932Z,997.18
2023-02-23T09:12:13.095Z,997.18
2023-02-23T09:13:13.163Z,997.19
2023-02-23T09:14:13.217Z,997.20
2023-02-23T09:15:13.211Z,997.20
2023-02-23T09:16:27.258Z,997.21
2023-02-23T09:17:13.676Z,997.23
2023-02-23T09:18:13.931Z,997.19
2023-02-23T09:19:12.893Z,997.24
2023-02-23T09:20:13.420Z,997.30
2023-02-23T09:21:13.536Z,997.28
2023-02-23T09:22:13.560Z,997.25
2023-02-23T09:23:13.563Z,997.24
2023-02-23T09:24:13.728Z,997.29
2023-02-23T09:25:14.252Z,997.30
2023-02-23T09:26:13.392Z,997.30
2023-02-23T09:27:13.693Z,997.28
2023-02-23T09:28:13.947Z,997.30
2023-02-23T09:29:13.201Z,997.31
2023-02-23T09:30:13.315Z,997.31
2023-02-23T09:31:13.695Z,997.29
2023-02-23T09:32:13.217Z,997.30
2023-02-23T09:33:23.448Z,997.30
2023-02-23T09:34:13.496Z,997.33
2023-02-23T09:35:13.760Z,997.31
2023-02-23T09:36:13.741Z,997.30
2023-02-23T09:37:13.585Z,997.30
2023-02-23T09:38:13.581Z,997.33
2023-02-23T09:39:13.756Z,997.32
2023-02-23T09:40:14.211Z,997.35
2023-02-23T09:41:18.362Z,997.38
2023-02-23T09:42:13.601Z,997.36
2023-02-23T09:43:13.907Z,997.41
2023-02-23T09:44:12.791Z,997.39
2023-02-23T09:45:13.776Z,997.38
2023-02-23T09:46:14.239Z,997.41
2023-02-23T09:47:13.249Z,997.45
2023-02-23T09:48:13.228Z,997.41
2023-02-23T09:49:13.222Z,997.44
2023-02-23T09:50:23.219Z,997.43
2023-02-23T09:51:13.677Z,997.44
2023-02-23T09:52:14.104Z,997.43
2023-02-23T09:53:13.237Z,997.45
2023-02-23T09:54:52.704Z,997.43
2023-02-23T09:55:12.990Z,997.44
2023-02-23T09:56:13.239Z,997.48
2023-02-23T09:57:13.102Z,997.44
2023-02-23T09:59:13.206Z,997.51
2023-02-23T10:00:27.998Z,997.51
2023-02-23T10:01:14.688Z,997.48
2023-02-23T10:02:13.853Z,997.46
2023-02-23T10:03:13.965Z,997.48
2023-02-23T10:04:56.974Z,997.47
2023-02-23T10:05:13.468Z,997.52
2023-02-23T10:06:31.527Z,997.50
2023-02-23T10:07:13.861Z,997.49
2023-02-23T10:08:14.422Z,997.51
2023-02-23T10:09:13.340Z,997.49
2023-02-23T10:11:13.372Z,997.49
2023-02-23T10:12:13.797Z,997.55
2023-02-23T10:13:14.043Z,997.55
2023-02-23T10:14:13.132Z,997.57
2023-02-23T10:15:13.071Z,997.53
2023-02-23T10:16:13.187Z,997.56
2023-02-23T10:17:13.200Z,997.56
2023-02-23T10:18:13.240Z,997.61
2023-02-23T10:19:13.350Z,997.61
2023-02-23T10:20:13.392Z,997.57
2023-02-23T10:21:13.377Z,997.59
2023-02-23T10:22:13.623Z,997.59
2023-02-23T10:24:38.035Z,997.62
2023-02-23T10:25:14.502Z,997.64
2023-02-23T10:26:14.898Z,997.69
2023-02-23T10:27:12.708Z,997.66
2023-02-23T10:28:13.809Z,997.68
2023-02-23T10:29:14.022Z,997.68
2023-02-23T10:30:13.245Z,997.69
2023-02-23T10:31:23.626Z,997.69
2023-02-23T10:32:18.426Z,997.64
2023-02-23T10:33:13.547Z,997.68
2023-02-23T10:34:13.728Z,997.66
2023-02-23T10:35:13.852Z,997.69
2023-02-23T10:36:27.909Z,997.72
2023-02-23T10:37:12.993Z,997.68
2023-02-23T10:38:13.001Z,997.70
2023-02-23T10:39:13.483Z,997.67
2023-02-23T10:40:13.580Z,997.67
2023-02-23T10:41:14.987Z,997.70
2023-02-23T10:43:13.450Z,997.66
2023-02-23T10:44:17.043Z,997.70
2023-02-23T10:45:13.408Z,997.69
2023-02-23T10:46:24.350Z,997.69
2023-02-23T10:47:20.240Z,997.67
2023-02-23T10:48:13.241Z,997.69
2023-02-23T10:49:22.881Z,997.69
2023-02-23T10:50:13.025Z,997.71
2023-02-23T10:52:13.095Z,997.74
2023-02-23T10:53:13.352Z,997.75
2023-02-23T10:54:13.868Z,997.72
2023-02-23T10:55:12.855Z,997.76
2023-02-23T10:56:14.026Z,997.74
2023-02-23T10:57:14.252Z,997.74
2023-02-23T10:58:37.890Z,997.76
2023-02-23T10:59:23.130Z,997.75
2023-02-23T11:00:13.145Z,997.71
2023-02-23T11:01:13.204Z,997.73
2023-02-23T11:02:33.485Z,997.78
2023-02-23T11:03:13.497Z,997.75
2023-02-23T11:04:50.608Z,997.74
2023-02-23T11:05:14.227Z,997.74
2023-02-23T11:06:31.069Z,997.73
2023-02-23T11:07:14.083Z,997.75
2023-02-23T11:08:14.033Z,997.76
2023-02-23T11:09:13.690Z,997.71
2023-02-23T11:10:18.883Z,997.72
2023-02-23T11:11:45.923Z,997.68
2023-02-23T11:12:12.978Z,997.74
2023-02-23T11:13:13.006Z,997.74
2023-02-23T11:14:13.242Z,997.71
2023-02-23T11:15:13.338Z,997.72
2023-02-23T11:16:23.975Z,997.71
2023-02-23T11:17:13.031Z,997.76
2023-02-23T11:19:13.650Z,997.79
2023-02-23T11:20:13.570Z,997.81
2023-02-23T11:21:17.968Z,997.78
2023-02-23T11:22:26.696Z,997.80
2023-02-23T11:23:14.978Z,997.81
2023-02-23T11:24:13.831Z,997.79
2023-02-23T11:25:15.030Z,997.78
2023-02-23T11:26:13.135Z,997.82
2023-02-23T11:27:13.503Z,997.80
2023-02-23T11:28:16.414Z,997.76
2023-02-23T11:29:13.728Z,997.78
2023-02-23T11:30:13.872Z,997.79
2023-02-23T11:31:41.026Z,997.80
2023-02-23T11:32:13.359Z,997.82
2023-02-23T11:33:18.614Z,997.79
2023-02-23T11:34:13.697Z,997.75
2023-02-23T11:35:14.066Z,997.77
2023-02-23T11:36:13.182Z,997.76
2023-02-23T11:37:13.122Z,997.74
2023-02-23T11:39:28.865Z,997.75
2023-02-23T11:40:14.034Z,997.75
2023-02-23T11:41:13.262Z,997.74
2023-02-23T11:42:13.399Z,997.71
2023-02-23T11:43:13.531Z,997.73
2023-02-23T11:44:13.614Z,997.72
2023-02-23T11:45:13.663Z,997.71
2023-02-23T11:46:13.603Z,997.72
2023-02-23T11:47:13.974Z,997.70
2023-02-23T11:48:14.879Z,997.73
2023-02-23T11:49:30.061Z,997.69
2023-02-23T11:50:13.003Z,997.73
2023-02-23T11:51:15.320Z,997.73
2023-02-23T11:52:13.295Z,997.70
2023-02-23T11:53:13.248Z,997.74
2023-02-23T11:55:13.804Z,997.77
2023-02-23T11:56:13.933Z,997.77
2023-02-23T11:57:12.910Z,997.75
2023-02-23T11:58:13.249Z,997.72
2023-02-23T11:59:13.338Z,997.77
2023-02-23T12:00:13.482Z,997.76
2023-02-23T12:01:13.772Z,997.75
2023-02-23T12:02:14.165Z,997.75
2023-02-23T12:03:19.856Z,997.75
2023-02-23T12:04:24.851Z,997.80
2023-02-23T12:05:13.843Z,997.76
2023-02-23T12:06:13.880Z,997.78
2023-02-23T12:07:51.030Z,997.76
2023-02-23T12:08:12.971Z,997.75
2023-02-23T12:09:13.251Z,997.75
2023-02-23T12:10:13.642Z,997.76
2023-02-23T12:11:13.897Z,997.74
2023-02-23T12:12:12.983Z,997.74
2023-02-23T12:13:13.060Z,997.71
2023-02-23T12:14:46.489Z,997.73
2023-02-23T12:15:18.459Z,997.68
2023-02-23T12:16:13.440Z,997.71
2023-02-23T12:17:18.614Z,997.75
2023-02-23T12:18:13.613Z,997.69
2023-02-23T12:19:13.876Z,997.67
2023-02-23T12:20:14.049Z,997.71
2023-02-23T12:21:13.373Z,997.66
2023-02-23T12:22:13.725Z,997.65
2023-02-23T12:23:14.503Z,997.63
2023-02-23T12:24:13.687Z,997.61
2023-02-23T12:25:13.614Z,997.62
2023-02-23T12:26:13.982Z,997.59
2023-02-23T12:27:13.030Z,997.62
2023-02-23T12:28:18.887Z,997.62
2023-02-23T12:29:13.279Z,997.60
2023-02-23T12:30:13.523Z,997.59
2023-02-23T12:31:13.586Z,997.58
2023-02-23T12:32:13.655Z,997.60
2023-02-23T12:33:13.701Z,997.62
2023-02-23T12:34:13.721Z,997.64
2023-02-23T12:35:14.028Z,997.62
2023-02-23T12:36:13.127Z,997.61
2023-02-23T12:37:13.201Z,997.67